Macuru Arrow — C6YH3 — position and weather

sailwx.info

Track history (hours):
 
Tides and Currents Weather Stations Pressure Air Temp Water Temp Dewpoint Dewpoint Depression Visibility Wind Speed Wind Dir Waves Ship Positions

Macuru Arrow

Last reported at 2016-Jul-11 09:24 UTC. Time now 2016-Jul-28 04:46 UTC.
Position N 29°50' W 118°20'.
Warning: this ship's position is 16 days out of date.

Length 225 m; draft 11 m.

Type: Cargo ship. MMSI: 311032500.

Date/timePositionNaut miles runAvg speedWind from/ knotsBaromVisibWave heightAir tempDewpointWater temp
2016-Jul-11 09:24N 29°50' W 118°20'3713.0
2016-Jul-11 06:31N 30°19' W 118°47'2613.1
2016-Jul-11 04:33N 30°40' W 119°05'1313.4
2016-Jul-11 03:33N 30°51' W 119°14'9 8.4
2016-Jul-11 02:32N 30°57' W 119°20'1313.0
2016-Jul-11 01:33N 31°07' W 119°29'1313.0
2016-Jul-11 00:33N 31°17' W 119°39'1312.7
2016-Jul-10 23:33N 31°27' W 119°49'1312.7
2016-Jul-10 22:33N 31°37' W 119°58'1312.6
2016-Jul-10 21:33N 31°47' W 120°06'1312.7
2016-Jul-10 20:33N 31°58' W 120°15'1312.5
2016-Jul-10 19:33N 32°08' W 120°23'1312.7
2016-Jul-10 18:33N 32°19' W 120°32'1412.9
2016-Jul-10 17:28N 32°30' W 120°41'2712.9
2016-Jul-10 15:23N 32°54' W 120°57'1112.7
2016-Jul-10 14:33N 33°03' W 121°03'1212.6
2016-Jul-10 13:33N 33°14' W 121°09'1812.7
2016-Jul-10 12:08N 33°31' W 121°18'912.6
2016-Jul-10 11:27N 33°39' W 121°23'4013.1
2016-Jul-10 08:26N 34°14' W 121°43'1213.0
2016-Jul-10 07:30N 34°26' W 121°49'1212.9
2016-Jul-10 06:33N 34°36' W 121°55'1313.0
2016-Jul-10 05:32N 34°48' W 122°02'1312.8
2016-Jul-10 04:33N 34°60' W 122°09'1312.9
2016-Jul-10 03:33N 35°12' W 122°15'1313.4
2016-Jul-10 02:33N 35°23' W 122°23'1413.9
2016-Jul-10 01:33N 35°36' W 122°30'1313.4
2016-Jul-10 00:33N 35°48' W 122°37'1313.1
2016-Jul-09 23:33N 36°00' W 122°44'1313.1
2016-Jul-09 22:33N 36°12' W 122°51'1312.6
2016-Jul-09 21:33N 36°23' W 122°58'1413.6
2016-Jul-09 20:33N 36°36' W 123°05'1413.7
2016-Jul-09 19:33N 36°48' W 123°12'1313.3
2016-Jul-09 18:33N 36°60' W 123°19'1313.2
2016-Jul-09 17:33N 37°12' W 123°26'1312.8
2016-Jul-09 16:33N 37°24' W 123°33'1312.7
2016-Jul-09 15:32N 37°35' W 123°40'1312.8
2016-Jul-09 14:33N 37°47' W 123°46'1312.6
2016-Jul-09 13:33N 37°59' W 123°51'1212.4
2016-Jul-09 12:33N 38°10' W 123°56'1312.2
2016-Jul-09 11:31N 38°22' W 124°02'41012.3
2016-Jul-08 02:05N 45°10' W 125°07'1012.1
2016-Jul-08 01:16N 45°20' W 125°07'912.1
2016-Jul-08 00:33N 45°28' W 125°07'1211.7
2016-Jul-07 23:33N 45°40' W 125°09'1110.9
2016-Jul-07 22:33N 45°48' W 124°58'1212.2
2016-Jul-07 21:33N 45°54' W 124°43'1212.4
2016-Jul-07 20:33N 46°01' W 124°28'1312.8
2016-Jul-07 19:33N 46°09' W 124°13'1111.0
2016-Jul-07 18:33N 46°15' W 123°60'10 9.7
2016-Jul-07 17:34N 46°13' W 123°46'1212.3
2016-Jul-07 16:34N 46°16' W 123°29'1110.8
2016-Jul-07 15:34N 46°09' W 123°18'1212.3
2016-Jul-07 14:33N 46°08' W 123°00'9 9.3
2016-Jul-07 13:33N 46°01' W 122°51'1211.7
2016-Jul-07 12:33N 45°49' W 122°48'1111.0
2016-Jul-07 11:33N 45°38' W 122°47'2 2.2
2016-Jul-07 10:32N 45°36' W 122°46'0 0.0
2016-Jul-07 09:32N 45°36' W 122°46'0 0.0
2016-Jul-07 08:32N 45°36' W 122°46'0 0.0
2016-Jul-07 07:32N 45°36' W 122°46'0 0.0
2016-Jul-07 06:32N 45°36' W 122°46'0 0.0
2016-Jul-07 05:32N 45°36' W 122°46'0 0.0
2016-Jul-07 04:32N 45°36' W 122°46'0 0.0
2016-Jul-07 03:32N 45°36' W 122°46'0 0.0
2016-Jul-07 02:32N 45°36' W 122°47'0 0.0
2016-Jul-07 01:29N 45°36' W 122°47'0 0.0
2016-Jul-07 00:32N 45°36' W 122°47'0 0.0
2016-Jul-06 23:32N 45°36' W 122°47'0 0.0
2016-Jul-06 22:32N 45°36' W 122°47'0 0.0
2016-Jul-06 21:32N 45°36' W 122°47'0 0.0
2016-Jul-06 20:32N 45°36' W 122°47'0 0.0
2016-Jul-06 19:32N 45°36' W 122°47'0 0.0
2016-Jul-06 18:32N 45°36' W 122°46'0 0.0
2016-Jul-06 17:32N 45°36' W 122°46'0 0.0
2016-Jul-06 16:29N 45°36' W 122°46'0 0.0
2016-Jul-06 15:32N 45°36' W 122°46'0 0.0
2016-Jul-06 14:32N 45°36' W 122°46'0 0.0
2016-Jul-06 13:34N 45°36' W 122°46'3 3.1
2016-Jul-06 12:33N 45°39' W 122°46'1 0.8
2016-Jul-06 11:29N 45°40' W 122°46'0 0.0
2016-Jul-06 10:32N 45°40' W 122°46'0 0.0
2016-Jul-06 09:29N 45°40' W 122°46'0 0.0
2016-Jul-06 08:26N 45°40' W 122°46'0 0.0
2016-Jul-06 07:32N 45°40' W 122°46'0 0.0
2016-Jul-06 06:32N 45°40' W 122°46'0 0.0
2016-Jul-06 04:26N 45°40' W 122°46'0 0.0
2016-Jul-06 03:29N 45°40' W 122°46'0 0.0
2016-Jul-06 02:32N 45°40' W 122°46'0 0.0
2016-Jul-06 01:32N 45°40' W 122°46'0 0.0
2016-Jul-06 00:34N 45°40' W 122°46'6 5.9
2016-Jul-05 23:33N 45°46' W 122°46'1212.0
2016-Jul-05 22:33N 45°58' W 122°49'1010.4
2016-Jul-05 21:33N 46°06' W 122°57'1111.1
2016-Jul-05 20:33N 46°11' W 123°12'9 9.4
2016-Jul-05 19:34N 46°12' W 123°26'1010.3
2016-Jul-05 18:34N 46°15' W 123°40'1010.1
2016-Jul-05 17:34N 46°11' W 123°53'1110.8
2016-Jul-05 16:33N 46°14' W 124°08'7 7.0
2016-Jul-05 15:34N 46°11' W 124°18'2 1.8
2016-Jul-05 14:34N 46°09' W 124°17'4 3.9
2016-Jul-05 13:34N 46°09' W 124°23'1 1.0
2016-Jul-05 12:34N 46°09' W 124°22'1 1.3
2016-Jul-05 11:34N 46°08' W 124°20'2 2.2
2016-Jul-05 10:34N 46°07' W 124°23'8 7.9
2016-Jul-05 09:33N 46°07' W 124°34'1312.9
2016-Jul-05 08:34N 46°07' W 124°53'1312.8
2016-Jul-05 07:33N 46°07' W 125°11'1312.9
2016-Jul-05 06:33N 46°07' W 125°30'4213.3
2016-Jul-05 03:26N 46°06' W 126°30'1413.3
2016-Jul-05 02:23N 46°06' W 126°50'1113.2
2016-Jul-05 01:32N 46°06' W 127°06'1313.3
2016-Jul-05 00:33N 46°06' W 127°25'1313.2
2016-Jul-04 23:34N 46°06' W 127°44'  
Track history (hours):
 
Tides and Currents Weather Stations Pressure Air Temp Water Temp Dewpoint Dewpoint Depression Visibility Wind Speed Wind Dir Waves Ship Positions

Macuru Arrow

Last reported at 2016-Jul-11 09:24 UTC. Time now 2016-Jul-28 04:46 UTC.
Position N 29°50' W 118°20'.
Warning: this ship's position is 16 days out of date.

Length 225 m; draft 11 m.

Type: Cargo ship. MMSI: 311032500.

Date/timePositionNaut miles runAvg speedWind from/ knotsBaromVisibWave heightAir tempDewpointWater temp
2016-Jul-11 09:24N 29°50' W 118°20'3713.0
2016-Jul-11 06:31N 30°19' W 118°47'2613.1
2016-Jul-11 04:33N 30°40' W 119°05'1313.4
2016-Jul-11 03:33N 30°51' W 119°14'9 8.4
2016-Jul-11 02:32N 30°57' W 119°20'1313.0
2016-Jul-11 01:33N 31°07' W 119°29'1313.0
2016-Jul-11 00:33N 31°17' W 119°39'1312.7
2016-Jul-10 23:33N 31°27' W 119°49'1312.7
2016-Jul-10 22:33N 31°37' W 119°58'1312.6
2016-Jul-10 21:33N 31°47' W 120°06'1312.7
2016-Jul-10 20:33N 31°58' W 120°15'1312.5
2016-Jul-10 19:33N 32°08' W 120°23'1312.7
2016-Jul-10 18:33N 32°19' W 120°32'1412.9
2016-Jul-10 17:28N 32°30' W 120°41'2712.9
2016-Jul-10 15:23N 32°54' W 120°57'1112.7
2016-Jul-10 14:33N 33°03' W 121°03'1212.6
2016-Jul-10 13:33N 33°14' W 121°09'1812.7
2016-Jul-10 12:08N 33°31' W 121°18'912.6
2016-Jul-10 11:27N 33°39' W 121°23'4013.1
2016-Jul-10 08:26N 34°14' W 121°43'1213.0
2016-Jul-10 07:30N 34°26' W 121°49'1212.9
2016-Jul-10 06:33N 34°36' W 121°55'1313.0
2016-Jul-10 05:32N 34°48' W 122°02'1312.8
2016-Jul-10 04:33N 34°60' W 122°09'1312.9
2016-Jul-10 03:33N 35°12' W 122°15'1313.4
2016-Jul-10 02:33N 35°23' W 122°23'1413.9
2016-Jul-10 01:33N 35°36' W 122°30'1313.4
2016-Jul-10 00:33N 35°48' W 122°37'1313.1
2016-Jul-09 23:33N 36°00' W 122°44'1313.1
2016-Jul-09 22:33N 36°12' W 122°51'1312.6
2016-Jul-09 21:33N 36°23' W 122°58'1413.6
2016-Jul-09 20:33N 36°36' W 123°05'1413.7
2016-Jul-09 19:33N 36°48' W 123°12'1313.3
2016-Jul-09 18:33N 36°60' W 123°19'1313.2
2016-Jul-09 17:33N 37°12' W 123°26'1312.8
2016-Jul-09 16:33N 37°24' W 123°33'1312.7
2016-Jul-09 15:32N 37°35' W 123°40'1312.8
2016-Jul-09 14:33N 37°47' W 123°46'1312.6
2016-Jul-09 13:33N 37°59' W 123°51'1212.4
2016-Jul-09 12:33N 38°10' W 123°56'1312.2
2016-Jul-09 11:31N 38°22' W 124°02'41012.3
2016-Jul-08 02:05N 45°10' W 125°07'1012.1
2016-Jul-08 01:16N 45°20' W 125°07'912.1
2016-Jul-08 00:33N 45°28' W 125°07'1211.7
2016-Jul-07 23:33N 45°40' W 125°09'1110.9
2016-Jul-07 22:33N 45°48' W 124°58'1212.2
2016-Jul-07 21:33N 45°54' W 124°43'1212.4
2016-Jul-07 20:33N 46°01' W 124°28'1312.8
2016-Jul-07 19:33N 46°09' W 124°13'1111.0
2016-Jul-07 18:33N 46°15' W 123°60'10 9.7
2016-Jul-07 17:34N 46°13' W 123°46'1212.3
2016-Jul-07 16:34N 46°16' W 123°29'1110.8
2016-Jul-07 15:34N 46°09' W 123°18'1212.3
2016-Jul-07 14:33N 46°08' W 123°00'9 9.3
2016-Jul-07 13:33N 46°01' W 122°51'1211.7
2016-Jul-07 12:33N 45°49' W 122°48'1111.0
2016-Jul-07 11:33N 45°38' W 122°47'2 2.2
2016-Jul-07 10:32N 45°36' W 122°46'0 0.0
2016-Jul-07 09:32N 45°36' W 122°46'0 0.0
2016-Jul-07 08:32N 45°36' W 122°46'0 0.0
2016-Jul-07 07:32N 45°36' W 122°46'0 0.0
2016-Jul-07 06:32N 45°36' W 122°46'0 0.0
2016-Jul-07 05:32N 45°36' W 122°46'0 0.0
2016-Jul-07 04:32N 45°36' W 122°46'0 0.0
2016-Jul-07 03:32N 45°36' W 122°46'0 0.0
2016-Jul-07 02:32N 45°36' W 122°47'0 0.0
2016-Jul-07 01:29N 45°36' W 122°47'0 0.0
2016-Jul-07 00:32N 45°36' W 122°47'0 0.0
2016-Jul-06 23:32N 45°36' W 122°47'0 0.0
2016-Jul-06 22:32N 45°36' W 122°47'0 0.0
2016-Jul-06 21:32N 45°36' W 122°47'0 0.0
2016-Jul-06 20:32N 45°36' W 122°47'0 0.0
2016-Jul-06 19:32N 45°36' W 122°47'0 0.0
2016-Jul-06 18:32N 45°36' W 122°46'0 0.0
2016-Jul-06 17:32N 45°36' W 122°46'0 0.0
2016-Jul-06 16:29N 45°36' W 122°46'0 0.0
2016-Jul-06 15:32N 45°36' W 122°46'0 0.0
2016-Jul-06 14:32N 45°36' W 122°46'0 0.0
2016-Jul-06 13:34N 45°36' W 122°46'3 3.1
2016-Jul-06 12:33N 45°39' W 122°46'1 0.8
2016-Jul-06 11:29N 45°40' W 122°46'0 0.0
2016-Jul-06 10:32N 45°40' W 122°46'0 0.0
2016-Jul-06 09:29N 45°40' W 122°46'0 0.0
2016-Jul-06 08:26N 45°40' W 122°46'0 0.0
2016-Jul-06 07:32N 45°40' W 122°46'0 0.0
2016-Jul-06 06:32N 45°40' W 122°46'0 0.0
2016-Jul-06 04:26N 45°40' W 122°46'0 0.0
2016-Jul-06 03:29N 45°40' W 122°46'0 0.0
2016-Jul-06 02:32N 45°40' W 122°46'0 0.0
2016-Jul-06 01:32N 45°40' W 122°46'0 0.0
2016-Jul-06 00:34N 45°40' W 122°46'6 5.9
2016-Jul-05 23:33N 45°46' W 122°46'1212.0
2016-Jul-05 22:33N 45°58' W 122°49'1010.4
2016-Jul-05 21:33N 46°06' W 122°57'1111.1
2016-Jul-05 20:33N 46°11' W 123°12'9 9.4
2016-Jul-05 19:34N 46°12' W 123°26'1010.3
2016-Jul-05 18:34N 46°15' W 123°40'1010.1
2016-Jul-05 17:34N 46°11' W 123°53'1110.8
2016-Jul-05 16:33N 46°14' W 124°08'7 7.0
2016-Jul-05 15:34N 46°11' W 124°18'2 1.8
2016-Jul-05 14:34N 46°09' W 124°17'4 3.9
2016-Jul-05 13:34N 46°09' W 124°23'1 1.0
2016-Jul-05 12:34N 46°09' W 124°22'1 1.3
2016-Jul-05 11:34N 46°08' W 124°20'2 2.2
2016-Jul-05 10:34N 46°07' W 124°23'8 7.9
2016-Jul-05 09:33N 46°07' W 124°34'1312.9
2016-Jul-05 08:34N 46°07' W 124°53'1312.8
2016-Jul-05 07:33N 46°07' W 125°11'1312.9
2016-Jul-05 06:33N 46°07' W 125°30'4213.3
2016-Jul-05 03:26N 46°06' W 126°30'1413.3
2016-Jul-05 02:23N 46°06' W 126°50'1113.2
2016-Jul-05 01:32N 46°06' W 127°06'1313.3
2016-Jul-05 00:33N 46°06' W 127°25'1313.2
2016-Jul-04 23:34N 46°06' W 127°44'  

Dump ship's entire track history